Time;durP1;ratioP1;P1;durP2;ratioP2;P2;SDS_P1;SDS_P2;PMS_P1;PMS_P2;Temp;Humidity;BMP_temperature;BMP_pressure;BME280_temperature;BME280_humidity;BME280_pressure;Samples;Min_cycle;Max_cycle;Signal;HPM_P1;HPM_P2
2024/02/24 00:01:21;;;;;;;4.65;0.88;;;7.60;83.70;;;;;;9182129;19;20507;-70
2024/02/24 00:04:31;;;;;;;2.97;0.98;;;7.60;83.70;;;;;;9181337;19;20022;-69
2024/02/24 00:07:37;;;;;;;1.65;0.77;;;7.60;83.70;;;;;;9180467;19;20010;-70
2024/02/24 00:10:45;;;;;;;2.85;1.35;;;7.50;83.70;;;;;;9180781;19;20076;-70
2024/02/24 00:13:50;;;;;;;2.72;1.15;;;7.50;83.80;;;;;;9179412;19;20002;-69
2024/02/24 00:16:57;;;;;;;2.10;1.00;;;7.60;83.70;;;;;;9181642;19;20022;-70
2024/02/24 00:20:06;;;;;;;3.75;1.10;;;7.50;83.60;;;;;;9179827;19;20356;-70
2024/02/24 00:23:14;;;;;;;2.70;1.15;;;7.40;83.60;;;;;;9180525;19;20022;-69
2024/02/24 00:26:19;;;;;;;3.33;1.27;;;7.40;83.70;;;;;;9180847;19;20018;-70
2024/02/24 00:29:28;;;;;;;5.97;1.17;;;7.40;83.60;;;;;;9178032;19;20019;-70
2024/02/24 00:32:33;;;;;;;2.20;1.00;;;7.40;83.80;;;;;;9180225;19;20024;-71
2024/02/24 00:35:44;;;;;;;5.35;1.42;;;7.40;83.60;;;;;;9180503;19;20015;-70
2024/02/24 00:38:49;;;;;;;2.88;1.10;;;7.40;83.60;;;;;;9179868;19;20665;-71
2024/02/24 00:41:57;;;;;;;1.98;1.10;;;7.30;83.60;;;;;;9179764;19;20037;-70
2024/02/24 00:45:03;;;;;;;3.13;1.20;;;7.30;83.50;;;;;;9183026;19;20115;-71
2024/02/24 00:48:10;;;;;;;4.75;1.02;;;7.20;83.50;;;;;;9181763;19;20021;-68
2024/02/24 00:51:19;;;;;;;4.50;1.10;;;7.30;83.60;;;;;;9181263;19;20052;-70
2024/02/24 00:54:26;;;;;;;4.07;1.13;;;7.20;83.50;;;;;;9179341;19;20010;-70
2024/02/24 00:57:32;;;;;;;3.88;0.98;;;7.20;83.60;;;;;;9175528;19;20025;-69
2024/02/24 01:00:39;;;;;;;3.05;0.90;;;7.20;83.60;;;;;;9179299;19;20014;-70
2024/02/24 01:03:44;;;;;;;3.95;1.00;;;7.10;83.50;;;;;;9179976;19;20639;-70
2024/02/24 01:06:55;;;;;;;3.33;1.30;;;7.10;83.70;;;;;;9177979;19;20047;-70
2024/02/24 01:10:01;;;;;;;1.73;1.02;;;7.10;84.30;;;;;;9176564;19;20019;-70
2024/02/24 01:13:09;;;;;;;1.27;0.80;;;7.00;83.50;;;;;;9178712;19;20015;-69
2024/02/24 01:16:14;;;;;;;1.60;0.93;;;7.00;83.70;;;;;;9178607;19;20022;-70
2024/02/24 01:19:22;;;;;;;1.65;1.02;;;7.00;83.70;;;;;;9178735;19;20437;-70
2024/02/24 01:22:30;;;;;;;5.57;1.27;;;7.00;83.70;;;;;;9178473;19;20025;-70
2024/02/24 01:25:38;;;;;;;2.60;1.00;;;6.90;83.80;;;;;;9175225;19;20025;-70
2024/02/24 01:28:47;;;;;;;3.70;1.02;;;6.90;83.80;;;;;;9177381;19;20007;-70
2024/02/24 01:31:59;;;;;;;1.73;0.90;;;6.90;83.90;;;;;;9177167;19;20034;-70
2024/02/24 01:35:07;;;;;;;2.10;1.10;;;6.80;83.80;;;;;;9178591;19;20361;-70
2024/02/24 01:38:18;;;;;;;1.67;0.88;;;6.90;83.80;;;;;;9177851;19;20105;-70
2024/02/24 01:41:23;;;;;;;1.98;1.05;;;6.90;83.90;;;;;;9178632;19;20090;-70
2024/02/24 01:44:31;;;;;;;3.15;1.10;;;6.90;84.00;;;;;;9177426;19;20014;-69
2024/02/24 01:47:49;;;;;;;5.95;1.00;;;6.90;83.90;;;;;;9216313;19;20565;-69
2024/02/24 01:50:58;;;;;;;1.80;1.00;;;6.90;84.00;;;;;;9218103;19;20094;-68
2024/02/24 01:54:04;;;;;;;4.47;1.00;;;6.90;84.00;;;;;;9217199;19;20028;-69
2024/02/24 01:57:14;;;;;;;1.98;0.80;;;6.80;83.90;;;;;;9219010;19;20408;-70
2024/02/24 02:00:19;;;;;;;3.92;1.08;;;6.80;84.20;;;;;;9218992;19;20018;-70
2024/02/24 02:03:30;;;;;;;4.53;1.20;;;6.80;84.00;;;;;;9219057;19;20013;-69
2024/02/24 02:06:56;;;;;;;1.92;1.20;;;6.80;84.00;;;;;;9216193;19;20011;-69
2024/02/24 02:10:04;;;;;;;1.63;0.98;;;6.80;83.90;;;;;;9218913;19;20021;-69
2024/02/24 02:13:11;;;;;;;3.80;0.90;;;6.80;83.90;;;;;;9218990;19;20025;-69
2024/02/24 02:16:19;;;;;;;1.75;1.00;;;6.70;83.90;;;;;;9220378;19;20094;-69
2024/02/24 02:19:27;;;;;;;3.28;0.98;;;6.80;83.90;;;;;;9218586;19;20535;-69
2024/02/24 02:22:55;;;;;;;4.22;1.30;;;6.80;84.00;;;;;;9218350;19;20022;-69
2024/02/24 02:26:02;;;;;;;5.63;1.35;;;6.70;84.00;;;;;;9216837;19;20066;-69
2024/02/24 02:29:09;;;;;;;3.45;1.25;;;6.80;84.00;;;;;;9218218;19;20022;-69
2024/02/24 02:32:15;;;;;;;3.15;1.30;;;6.80;84.20;;;;;;9217040;19;20014;-69
2024/02/24 02:35:23;;;;;;;4.72;1.48;;;6.70;84.20;;;;;;9215145;19;20459;-69
2024/02/24 02:38:31;;;;;;;2.90;1.30;;;6.80;84.20;;;;;;9217591;19;20006;-69
2024/02/24 02:41:42;;;;;;;6.38;1.20;;;6.70;84.10;;;;;;9216557;19;20037;-69
2024/02/24 02:44:47;;;;;;;2.40;1.20;;;6.80;84.10;;;;;;9216138;19;20026;-69
2024/02/24 02:47:55;;;;;;;3.42;1.38;;;6.80;84.30;;;;;;9214272;19;20021;-69
2024/02/24 02:51:01;;;;;;;2.85;1.48;;;6.70;84.20;;;;;;9217296;19;20071;-68
2024/02/24 02:54:11;;;;;;;2.95;0.98;;;6.80;84.30;;;;;;9216757;19;20342;-69
2024/02/24 02:57:16;;;;;;;3.45;1.23;;;6.80;84.50;;;;;;9198328;19;20014;-69
2024/02/24 03:00:24;;;;;;;4.65;1.50;;;6.80;84.40;;;;;;9181028;19;20078;-69
2024/02/24 03:03:30;;;;;;;3.15;1.33;;;6.80;84.30;;;;;;9178265;19;20014;-69
2024/02/24 03:06:37;;;;;;;2.85;1.20;;;6.80;84.40;;;;;;9179678;19;20029;-69
2024/02/24 03:09:48;;;;;;;3.13;1.13;;;6.80;85.20;;;;;;9179809;19;20022;-69
2024/02/24 03:12:56;;;;;;;3.40;1.10;;;6.80;84.50;;;;;;9181087;19;20456;-69
2024/02/24 03:16:01;;;;;;;4.20;1.52;;;6.80;84.70;;;;;;9179895;19;20042;-69
2024/02/24 03:19:11;;;;;;;3.67;1.40;;;6.80;84.30;;;;;;9178545;19;20456;-69
2024/02/24 03:22:16;;;;;;;5.82;1.42;;;6.80;84.30;;;;;;9178205;19;20057;-69
2024/02/24 03:25:26;;;;;;;3.88;1.33;;;6.80;84.40;;;;;;9179221;19;20100;-69
2024/02/24 03:28:32;;;;;;;1.63;1.48;;;6.80;84.40;;;;;;9175959;19;20011;-70
2024/02/24 03:31:39;;;;;;;5.40;1.67;;;6.80;84.30;;;;;;9178918;19;20511;-70
2024/02/24 03:34:45;;;;;;;4.95;1.23;;;6.80;84.40;;;;;;9179598;19;20017;-69
2024/02/24 03:37:53;;;;;;;7.10;1.17;;;6.80;84.40;;;;;;9175972;19;20014;-69
2024/02/24 03:41:01;;;;;;;3.90;1.23;;;6.80;84.30;;;;;;9177272;19;20531;-68
2024/02/24 03:44:09;;;;;;;7.28;1.25;;;6.80;84.40;;;;;;9179928;19;20122;-69
2024/02/24 03:47:14;;;;;;;2.45;1.30;;;6.80;84.40;;;;;;9175663;19;20014;-69
2024/02/24 03:50:22;;;;;;;8.00;1.63;;;6.80;84.30;;;;;;9179105;19;20483;-69
2024/02/24 03:53:28;;;;;;;2.40;1.30;;;6.80;84.40;;;;;;9179753;19;20021;-68
2024/02/24 03:56:38;;;;;;;1.92;1.20;;;6.80;84.40;;;;;;9178330;19;20024;-69
2024/02/24 03:59:43;;;;;;;5.05;1.55;;;6.80;84.40;;;;;;9174124;19;20014;-69
2024/02/24 04:02:51;;;;;;;3.15;1.60;;;6.70;84.40;;;;;;9179150;19;20405;-68
2024/02/24 04:05:57;;;;;;;2.95;1.30;;;6.80;84.40;;;;;;9177507;19;20022;-68
2024/02/24 04:09:05;;;;;;;2.75;1.42;;;6.80;84.70;;;;;;9173388;19;20606;-68
2024/02/24 04:12:13;;;;;;;5.88;1.50;;;6.70;84.30;;;;;;9177809;19;20015;-69
2024/02/24 04:15:21;;;;;;;4.28;1.60;;;6.70;84.30;;;;;;9177531;19;20018;-69
2024/02/24 04:18:27;;;;;;;4.88;1.70;;;6.70;84.30;;;;;;9177597;19;20020;-70
2024/02/24 04:21:35;;;;;;;3.60;1.83;;;6.70;84.40;;;;;;9176883;19;20376;-70
2024/02/24 04:24:40;;;;;;;5.28;1.85;;;6.60;84.40;;;;;;9178358;19;20884;-70
2024/02/24 04:27:50;;;;;;;3.33;1.70;;;6.60;84.40;;;;;;9176054;19;20014;-70
2024/02/24 04:30:56;;;;;;;5.45;2.45;;;6.60;84.30;;;;;;9178688;19;20014;-69
2024/02/24 04:34:03;;;;;;;4.65;2.30;;;6.60;84.30;;;;;;9176928;19;20014;-69
2024/02/24 04:37:09;;;;;;;4.07;2.15;;;6.60;84.50;;;;;;9177597;19;20010;-69
2024/02/24 04:40:17;;;;;;;7.10;2.58;;;6.50;84.30;;;;;;9177139;19;20480;-69
2024/02/24 04:43:25;;;;;;;5.85;2.40;;;6.60;84.60;;;;;;9175633;19;20014;-70
2024/02/24 04:46:33;;;;;;;5.65;2.47;;;6.50;84.40;;;;;;9177108;19;20034;-70
2024/02/24 04:49:38;;;;;;;7.20;2.83;;;6.50;84.50;;;;;;9175916;19;20019;-69
2024/02/24 04:52:46;;;;;;;6.57;3.05;;;6.50;84.50;;;;;;9175606;19;20384;-70
2024/02/24 04:55:51;;;;;;;7.57;3.10;;;6.50;84.50;;;;;;9175087;19;20553;-70
2024/02/24 04:59:02;;;;;;;6.70;3.10;;;6.50;84.60;;;;;;9170140;19;20022;-70
2024/02/24 05:02:07;;;;;;;4.25;2.90;;;6.50;84.60;;;;;;9176770;19;20106;-71
2024/02/24 05:05:15;;;;;;;5.15;2.65;;;6.50;84.60;;;;;;9174479;19;20464;-71
2024/02/24 05:08:20;;;;;;;5.28;3.03;;;6.40;84.40;;;;;;9174069;19;20018;-70
2024/02/24 05:11:28;;;;;;;7.25;3.13;;;6.50;84.60;;;;;;9176213;19;20637;-69
2024/02/24 05:14:37;;;;;;;6.25;3.10;;;6.40;84.50;;;;;;9175836;19;20101;-70
2024/02/24 05:17:45;;;;;;;6.18;3.35;;;6.50;84.60;;;;;;9174323;19;20022;-69
2024/02/24 05:20:51;;;;;;;5.72;2.85;;;6.50;84.60;;;;;;9172273;19;20484;-72
2024/02/24 05:23:59;;;;;;;4.22;2.83;;;6.40;84.60;;;;;;9175783;19;20018;-71
2024/02/24 05:27:04;;;;;;;8.57;3.30;;;6.50;84.70;;;;;;9176067;19;20052;-70
2024/02/24 05:30:15;;;;;;;6.20;2.85;;;6.50;84.80;;;;;;9176934;19;20022;-70
2024/02/24 05:33:20;;;;;;;6.93;2.60;;;6.50;84.80;;;;;;9176408;19;20010;-70
2024/02/24 05:36:28;;;;;;;5.82;2.80;;;6.50;84.70;;;;;;9174092;19;20017;-69
2024/02/24 05:39:34;;;;;;;4.47;2.63;;;6.50;84.90;;;;;;9173416;19;20363;-71
2024/02/24 05:42:41;;;;;;;5.18;3.25;;;6.50;85.00;;;;;;9174851;19;20597;-70
2024/02/24 05:45:49;;;;;;;5.07;2.95;;;6.50;84.90;;;;;;9174884;19;20021;-70
2024/02/24 05:48:57;;;;;;;7.75;2.97;;;6.50;85.00;;;;;;9172415;19;20015;-71
2024/02/24 05:52:02;;;;;;;4.57;2.88;;;6.50;85.20;;;;;;9173657;19;20623;-70
2024/02/24 05:55:13;;;;;;;9.73;2.80;;;6.60;85.20;;;;;;9173410;19;20015;-70
2024/02/24 05:58:18;;;;;;;4.72;2.97;;;6.60;85.10;;;;;;9168034;19;20374;-70
2024/02/24 06:01:28;;;;;;;4.75;2.85;;;6.60;85.20;;;;;;9173597;19;20034;-70
2024/02/24 06:04:34;;;;;;;7.47;3.13;;;6.60;85.20;;;;;;9173258;19;20014;-70
2024/02/24 06:07:41;;;;;;;3.67;2.60;;;6.60;85.20;;;;;;9173591;19;20032;-70
2024/02/24 06:10:47;;;;;;;7.70;3.40;;;6.60;85.20;;;;;;9168943;19;20022;-70
2024/02/24 06:13:54;;;;;;;5.07;2.95;;;6.70;85.30;;;;;;9173544;19;20017;-69
2024/02/24 06:17:03;;;;;;;4.28;2.85;;;6.70;85.30;;;;;;9173214;19;20047;-69
2024/02/24 06:20:11;;;;;;;5.32;2.92;;;6.70;85.20;;;;;;9172881;19;20022;-70
2024/02/24 06:23:17;;;;;;;6.40;3.63;;;6.70;85.50;;;;;;9171948;19;21510;-70
2024/02/24 06:26:24;;;;;;;6.85;3.70;;;6.70;85.20;;;;;;9170975;19;20356;-70
2024/02/24 06:29:30;;;;;;;6.15;3.40;;;6.80;85.40;;;;;;9171059;19;20018;-70
2024/02/24 06:32:41;;;;;;;5.20;2.97;;;6.80;85.40;;;;;;9175741;19;20587;-72
2024/02/24 06:35:46;;;;;;;9.50;3.58;;;6.80;85.30;;;;;;9178158;19;20018;-70
2024/02/24 06:38:54;;;;;;;6.53;3.95;;;6.80;85.20;;;;;;9182711;19;20019;-70
2024/02/24 06:42:00;;;;;;;6.32;3.45;;;6.80;85.20;;;;;;9182021;19;20021;-71
2024/02/24 06:45:08;;;;;;;6.28;3.55;;;6.80;85.20;;;;;;9182007;19;20021;-70
2024/02/24 06:48:17;;;;;;;5.70;3.53;;;6.80;85.20;;;;;;9179812;19;20047;-70
2024/02/24 06:51:25;;;;;;;8.35;5.10;;;6.80;85.20;;;;;;9182602;19;20735;-70
2024/02/24 06:54:30;;;;;;;6.07;3.85;;;6.90;85.20;;;;;;9180161;19;20030;-70
2024/02/24 06:57:38;;;;;;;11.13;3.63;;;7.10;85.40;;;;;;9177120;19;20022;-71
2024/02/24 07:00:43;;;;;;;8.40;3.58;;;6.90;85.40;;;;;;9180898;19;20015;-71
2024/02/24 07:03:53;;;;;;;5.10;3.22;;;6.90;85.40;;;;;;9181045;19;20030;-70
2024/02/24 07:06:59;;;;;;;8.52;3.40;;;7.00;85.40;;;;;;9180600;19;20018;-70
2024/02/24 07:10:08;;;;;;;6.32;3.22;;;7.10;85.90;;;;;;9178311;19;20018;-71
2024/02/24 07:13:14;;;;;;;8.25;3.33;;;7.00;85.30;;;;;;9178609;19;20014;-68
2024/02/24 07:16:21;;;;;;;5.50;3.53;;;7.00;85.20;;;;;;9180696;19;20033;-70
2024/02/24 07:19:29;;;;;;;10.65;3.30;;;7.00;85.20;;;;;;9179510;19;20026;-69
2024/02/24 07:22:37;;;;;;;4.85;3.22;;;7.10;85.30;;;;;;9179656;19;20023;-70
2024/02/24 07:25:42;;;;;;;5.78;3.05;;;7.00;85.30;;;;;;9180044;19;20386;-68
2024/02/24 07:28:50;;;;;;;6.57;3.90;;;7.00;85.40;;;;;;9178498;19;20014;-70
2024/02/24 07:31:55;;;;;;;9.88;4.57;;;7.10;85.30;;;;;;9175705;19;20061;-70
2024/02/24 07:35:06;;;;;;;9.93;3.00;;;7.10;85.40;;;;;;9179190;19;20361;-70
2024/02/24 07:38:12;;;;;;;6.05;3.38;;;7.10;85.40;;;;;;9179845;19;20964;-70
2024/02/24 07:41:21;;;;;;;6.40;3.55;;;7.10;85.30;;;;;;9179667;19;20010;-70
2024/02/24 07:44:26;;;;;;;4.93;3.50;;;7.10;85.30;;;;;;9178040;19;20010;-70
2024/02/24 07:47:34;;;;;;;7.60;4.50;;;7.10;85.30;;;;;;9179712;19;20018;-70
2024/02/24 07:50:45;;;;;;;10.73;3.45;;;7.10;85.40;;;;;;9176181;19;20045;-69
2024/02/24 07:53:50;;;;;;;7.97;3.30;;;7.10;85.50;;;;;;9177388;19;20098;-69
2024/02/24 07:56:58;;;;;;;4.32;2.75;;;7.20;85.30;;;;;;9179836;19;20045;-69
2024/02/24 08:00:04;;;;;;;7.07;2.80;;;7.30;85.40;;;;;;9174799;19;20022;-70
2024/02/24 08:03:12;;;;;;;5.85;3.00;;;7.20;85.40;;;;;;9178509;19;20015;-69
2024/02/24 08:06:20;;;;;;;6.13;2.97;;;7.20;85.40;;;;;;9179590;19;20011;-71
2024/02/24 08:09:29;;;;;;;4.85;2.97;;;7.30;85.60;;;;;;9176724;19;20014;-70
2024/02/24 08:12:35;;;;;;;6.10;2.67;;;7.20;85.30;;;;;;9178611;19;20052;-70
2024/02/24 08:15:42;;;;;;;6.85;2.83;;;7.30;85.50;;;;;;9176431;19;20018;-69
2024/02/24 08:18:49;;;;;;;6.18;2.67;;;7.30;85.40;;;;;;9179058;19;20337;-71
2024/02/24 08:22:00;;;;;;;3.10;2.00;;;7.30;85.40;;;;;;9177661;19;20015;-70
2024/02/24 08:25:06;;;;;;;2.78;2.15;;;7.40;86.10;;;;;;9177356;19;20025;-71
2024/02/24 08:28:14;;;;;;;2.75;2.25;;;7.30;85.60;;;;;;9176703;19;20021;-71
2024/02/24 08:31:20;;;;;;;4.68;2.15;;;7.40;85.40;;;;;;9175857;19;20018;-70
2024/02/24 08:34:28;;;;;;;3.83;2.30;;;7.40;85.50;;;;;;9176413;19;20022;-69
2024/02/24 08:37:36;;;;;;;4.88;2.30;;;7.40;85.40;;;;;;9176080;19;20003;-69
2024/02/24 08:40:43;;;;;;;4.78;2.50;;;7.50;85.50;;;;;;9178553;19;20014;-69
2024/02/24 08:43:49;;;;;;;3.45;2.60;;;7.50;86.30;;;;;;9176455;19;20014;-71
2024/02/24 08:46:56;;;;;;;3.38;2.25;;;7.50;85.60;;;;;;9176188;19;20019;-71
2024/02/24 08:50:03;;;;;;;4.00;2.40;;;7.50;85.70;;;;;;9175307;19;20015;-71
2024/02/24 08:53:13;;;;;;;3.42;2.03;;;7.60;86.20;;;;;;9175856;19;20583;-71
2024/02/24 08:56:21;;;;;;;5.22;3.08;;;7.60;85.60;;;;;;9173612;19;20015;-70
2024/02/24 08:59:29;;;;;;;3.85;2.45;;;7.60;85.60;;;;;;9171776;19;20015;-70
2024/02/24 09:02:34;;;;;;;3.15;1.80;;;7.70;85.70;;;;;;9172964;19;20022;-69
2024/02/24 09:05:41;;;;;;;12.68;2.45;;;7.70;85.70;;;;;;9175364;19;20025;-69
2024/02/24 09:08:50;;;;;;;5.70;2.65;;;7.80;85.70;;;;;;9173933;19;20038;-69
2024/02/24 09:11:57;;;;;;;2.80;1.90;;;7.80;85.60;;;;;;9175902;19;20011;-70
2024/02/24 09:15:03;;;;;;;4.70;2.08;;;7.90;85.60;;;;;;9176848;19;20021;-70
2024/02/24 09:18:11;;;;;;;4.15;1.60;;;7.90;85.60;;;;;;9176223;19;20018;-70
2024/02/24 09:21:16;;;;;;;4.97;2.63;;;7.90;85.70;;;;;;9175583;19;20014;-70
2024/02/24 09:24:27;;;;;;;7.85;2.53;;;8.00;85.70;;;;;;9171259;19;20010;-69
2024/02/24 09:27:33;;;;;;;7.38;2.08;;;8.00;85.50;;;;;;9176088;19;20015;-70
2024/02/24 09:30:41;;;;;;;4.10;2.08;;;8.00;86.00;;;;;;9173008;19;20368;-69
2024/02/24 09:33:50;;;;;;;6.57;1.77;;;8.00;85.60;;;;;;9174842;19;20010;-70
2024/02/24 09:36:57;;;;;;;9.50;1.80;;;8.20;85.60;;;;;;9170295;19;20038;-70
2024/02/24 09:40:08;;;;;;;4.35;1.70;;;8.20;85.50;;;;;;9170840;19;20015;-70
2024/02/24 09:43:16;;;;;;;3.45;1.60;;;8.20;85.50;;;;;;9173429;19;20002;-71
2024/02/24 09:46:21;;;;;;;2.65;1.40;;;8.30;85.70;;;;;;9174901;19;20040;-70
2024/02/24 09:49:32;;;;;;;2.65;1.70;;;8.30;85.50;;;;;;9172223;19;20514;-69
2024/02/24 09:52:38;;;;;;;4.20;1.60;;;8.30;85.60;;;;;;9173353;19;20021;-70
2024/02/24 09:55:49;;;;;;;2.30;1.38;;;8.40;85.60;;;;;;9174874;19;20030;-70
2024/02/24 09:58:56;;;;;;;2.83;1.55;;;8.40;85.60;;;;;;9172019;19;20368;-69
2024/02/24 10:02:03;;;;;;;3.25;1.48;;;8.50;85.50;;;;;;9178461;19;20011;-70
2024/02/24 10:05:11;;;;;;;8.57;3.15;;;8.60;85.40;;;;;;9178905;19;20072;-70
2024/02/24 10:08:19;;;;;;;4.63;2.17;;;8.70;85.50;;;;;;9181612;19;20468;-70
2024/02/24 10:11:27;;;;;;;4.65;1.80;;;8.70;85.50;;;;;;9184851;19;20025;-70
2024/02/24 10:14:41;;;;;;;4.07;1.40;;;8.80;85.60;;;;;;9184293;19;20026;-70
2024/02/24 10:17:47;;;;;;;4.88;1.90;;;8.90;85.90;;;;;;9183619;19;20013;-70
2024/02/24 10:20:55;;;;;;;3.80;2.00;;;9.10;85.90;;;;;;9179899;19;20006;-70
2024/02/24 10:24:00;;;;;;;5.97;1.67;;;9.20;85.80;;;;;;9180896;19;20019;-71
2024/02/24 10:27:12;;;;;;;3.72;1.40;;;9.30;86.10;;;;;;9183571;19;20022;-69
2024/02/24 10:30:19;;;;;;;2.75;1.40;;;9.40;85.60;;;;;;9180455;19;20022;-70
2024/02/24 10:33:33;;;;;;;5.35;1.83;;;9.50;86.10;;;;;;9182635;19;20025;-69
2024/02/24 10:36:43;;;;;;;3.28;1.48;;;9.70;85.30;;;;;;9183187;19;20438;-70
2024/02/24 10:39:53;;;;;;;3.75;1.50;;;9.70;85.00;;;;;;9180423;19;20017;-69
2024/02/24 10:43:02;;;;;;;2.10;1.50;;;9.80;84.70;;;;;;9181187;19;20022;-69
2024/02/24 10:46:09;;;;;;;7.20;1.58;;;9.70;84.60;;;;;;9180945;19;20011;-69
2024/02/24 10:49:15;;;;;;;1.63;1.40;;;9.80;84.60;;;;;;9182249;19;20039;-70
2024/02/24 10:52:24;;;;;;;1.73;1.10;;;9.90;84.80;;;;;;9178898;19;20022;-71
2024/02/24 10:55:31;;;;;;;4.15;1.25;;;9.80;84.40;;;;;;9182591;19;20029;-69
2024/02/24 10:58:44;;;;;;;1.75;1.30;;;9.80;84.30;;;;;;9178139;19;20398;-70
2024/02/24 11:01:55;;;;;;;2.15;1.45;;;9.90;84.70;;;;;;9179855;19;20044;-69
2024/02/24 11:05:04;;;;;;;1.65;1.13;;;9.80;83.90;;;;;;9181329;19;20007;-69
2024/02/24 11:08:36;;;;;;;3.60;1.42;;;9.70;83.90;;;;;;9179455;19;20444;-70
2024/02/24 11:11:44;;;;;;;2.22;1.20;;;9.60;83.60;;;;;;9179497;19;20357;-71
2024/02/24 11:14:53;;;;;;;1.00;0.90;;;9.60;83.70;;;;;;9180944;19;20029;-69
2024/02/24 11:18:00;;;;;;;1.45;1.10;;;9.40;83.50;;;;;;9180414;19;20019;-70
2024/02/24 11:21:06;;;;;;;1.20;0.90;;;9.30;83.70;;;;;;9178809;19;20018;-71
2024/02/24 11:24:20;;;;;;;1.00;0.90;;;9.30;83.70;;;;;;9180557;19;20498;-71
2024/02/24 11:27:31;;;;;;;1.85;1.00;;;9.10;84.00;;;;;;9181457;19;20014;-70
2024/02/24 11:30:51;;;;;;;2.30;1.15;;;9.20;83.80;;;;;;9179764;19;20018;-71
2024/02/24 11:34:00;;;;;;;4.65;1.08;;;9.10;83.70;;;;;;9178677;19;20021;-70
2024/02/24 11:37:09;;;;;;;3.75;0.82;;;9.00;83.70;;;;;;9177309;19;20021;-70
2024/02/24 11:40:15;;;;;;;1.40;1.00;;;8.90;83.80;;;;;;9177571;19;20487;-70
2024/02/24 11:43:23;;;;;;;1.48;0.82;;;8.90;83.90;;;;;;9177137;19;20022;-70
2024/02/24 11:46:33;;;;;;;1.77;0.70;;;8.80;83.80;;;;;;9175517;19;20307;-70
2024/02/24 11:49:47;;;;;;;0.47;0.47;;;8.60;83.60;;;;;;9178665;19;20025;-71
2024/02/24 11:52:53;;;;;;;0.90;0.70;;;8.60;83.80;;;;;;9175531;19;20010;-71
2024/02/24 11:56:00;;;;;;;1.40;0.90;;;8.40;83.70;;;;;;9179571;19;20373;-72
2024/02/24 11:59:06;;;;;;;1.80;1.10;;;8.40;83.70;;;;;;9174175;19;20102;-72
2024/02/24 12:02:18;;;;;;;1.13;1.02;;;8.20;83.70;;;;;;9177938;19;20014;-71
2024/02/24 12:05:24;;;;;;;1.10;1.00;;;8.30;83.90;;;;;;9177044;19;20074;-70
2024/02/24 12:08:32;;;;;;;2.22;1.10;;;8.10;83.70;;;;;;9175166;19;20025;-70
2024/02/24 12:11:37;;;;;;;3.63;1.77;;;8.00;83.80;;;;;;9173202;19;20037;-71
2024/02/24 12:14:45;;;;;;;1.70;1.23;;;8.00;84.20;;;;;;9178825;19;20498;-70
2024/02/24 12:17:54;;;;;;;2.03;1.08;;;8.00;84.10;;;;;;9178407;19;20023;-71
2024/02/24 12:21:02;;;;;;;2.90;1.35;;;8.00;84.20;;;;;;9177205;19;20025;-71
2024/02/24 12:24:08;;;;;;;1.27;1.17;;;8.00;84.30;;;;;;9175927;19;20029;-71
2024/02/24 12:27:16;;;;;;;1.98;1.58;;;8.00;84.40;;;;;;9175730;19;20449;-72
2024/02/24 12:30:22;;;;;;;2.30;1.48;;;8.10;84.70;;;;;;9175601;19;20015;-71
2024/02/24 12:33:32;;;;;;;4.30;1.52;;;8.10;84.60;;;;;;9172986;19;20015;-71
2024/02/24 12:36:38;;;;;;;5.80;1.70;;;8.20;84.60;;;;;;9176173;19;20389;-73
2024/02/24 12:39:45;;;;;;;4.18;1.73;;;8.20;84.70;;;;;;9178469;19;20025;-71
2024/02/24 12:42:51;;;;;;;5.03;1.77;;;8.20;84.60;;;;;;9175286;19;20010;-71
2024/02/24 12:45:58;;;;;;;2.47;1.70;;;8.30;84.50;;;;;;9177255;19;20014;-71
2024/02/24 12:49:07;;;;;;;3.58;1.83;;;8.30;84.50;;;;;;9177743;19;20015;-70
2024/02/24 12:52:15;;;;;;;2.70;1.90;;;8.30;84.40;;;;;;9176604;19;20025;-69
2024/02/24 12:55:20;;;;;;;2.88;1.70;;;8.40;84.50;;;;;;9177000;19;20021;-69
2024/02/24 12:58:29;;;;;;;5.47;1.95;;;8.40;84.40;;;;;;9172128;19;20026;-71
2024/02/24 13:01:35;;;;;;;3.10;1.75;;;8.50;84.40;;;;;;9176226;19;20014;-70
2024/02/24 13:04:48;;;;;;;6.43;2.00;;;8.50;84.40;;;;;;9176746;19;20358;-69
2024/02/24 13:07:56;;;;;;;4.40;1.80;;;8.60;84.60;;;;;;9173091;19;20018;-70
2024/02/24 13:11:06;;;;;;;2.38;1.70;;;8.60;84.70;;;;;;9176803;19;20651;-70
2024/02/24 13:14:15;;;;;;;2.28;1.50;;;8.60;84.50;;;;;;9173613;19;20094;-70
2024/02/24 13:17:24;;;;;;;1.85;1.45;;;8.60;84.40;;;;;;9175264;19;20023;-69
2024/02/24 13:20:33;;;;;;;2.42;1.73;;;8.70;84.50;;;;;;9175864;19;20747;-73
2024/02/24 13:23:41;;;;;;;16.55;2.83;;;8.70;84.20;;;;;;9175533;19;20021;-72
2024/02/24 13:26:46;;;;;;;1.17;0.85;;;8.70;84.00;;;;;;9173256;19;20015;-70
2024/02/24 13:29:54;;;;;;;1.23;0.73;;;8.60;83.60;;;;;;9174758;19;20025;-70
2024/02/24 13:33:00;;;;;;;2.22;1.13;;;8.60;83.50;;;;;;9161885;19;20026;-70
2024/02/24 13:36:10;;;;;;;2.35;1.05;;;8.40;83.30;;;;;;9166840;19;20098;-71
2024/02/24 13:39:16;;;;;;;5.93;0.95;;;8.30;83.20;;;;;;9168523;19;20480;-71
2024/02/24 13:42:24;;;;;;;3.00;1.02;;;8.10;83.80;;;;;;9173640;19;20483;-71
2024/02/24 13:45:29;;;;;;;1.58;1.15;;;8.10;83.40;;;;;;9175390;19;20018;-70
2024/02/24 13:48:37;;;;;;;2.38;1.15;;;8.00;84.00;;;;;;9174551;19;20024;-69
2024/02/24 13:51:46;;;;;;;2.90;1.30;;;7.90;83.30;;;;;;9172115;19;20015;-70
2024/02/24 13:54:53;;;;;;;4.93;1.23;;;7.80;83.30;;;;;;9172551;19;21891;-70
2024/02/24 13:58:02;;;;;;;3.05;1.30;;;7.80;83.60;;;;;;9167435;19;20029;-71
2024/02/24 14:01:10;;;;;;;2.97;1.83;;;7.70;83.60;;;;;;9168294;19;20021;-71
2024/02/24 14:04:16;;;;;;;7.95;1.60;;;8.00;84.00;;;;;;9170234;19;20036;-70
2024/02/24 14:07:26;;;;;;;2.75;1.70;;;7.70;84.00;;;;;;9172312;19;20019;-70
2024/02/24 14:10:33;;;;;;;4.18;1.50;;;7.70;84.30;;;;;;9170838;19;20019;-70
2024/02/24 14:13:40;;;;;;;4.90;1.65;;;7.80;84.60;;;;;;9171141;19;20015;-70
2024/02/24 14:16:47;;;;;;;1.75;1.40;;;7.80;84.50;;;;;;9173459;19;20018;-69
2024/02/24 14:19:54;;;;;;;6.10;1.50;;;7.80;84.40;;;;;;9172142;19;20365;-70
2024/02/24 14:23:03;;;;;;;1.85;1.30;;;7.80;84.50;;;;;;9174048;19;20983;-70
2024/02/24 14:26:10;;;;;;;4.20;1.33;;;7.80;84.70;;;;;;9172329;19;20026;-71
2024/02/24 14:29:16;;;;;;;1.42;0.95;;;7.70;84.30;;;;;;9173867;19;20017;-70
2024/02/24 14:32:23;;;;;;;1.90;1.10;;;7.80;84.30;;;;;;9172996;19;20030;-70
2024/02/24 14:35:29;;;;;;;8.43;1.23;;;7.80;84.30;;;;;;9169469;19;20026;-69
2024/02/24 14:38:39;;;;;;;3.03;1.30;;;7.70;84.30;;;;;;9172925;19;20022;-70
2024/02/24 14:41:44;;;;;;;8.15;1.13;;;7.70;84.60;;;;;;9173183;19;20018;-71
2024/02/24 14:44:52;;;;;;;3.45;1.40;;;7.70;84.50;;;;;;9173013;19;20045;-71
2024/02/24 14:47:59;;;;;;;3.25;1.50;;;7.70;84.60;;;;;;9173103;19;20018;-71
2024/02/24 14:51:12;;;;;;;3.72;1.10;;;7.70;85.00;;;;;;9169660;19;20109;-70
2024/02/24 14:54:20;;;;;;;8.60;1.40;;;7.80;84.50;;;;;;9175403;19;21263;-69
2024/02/24 14:57:28;;;;;;;4.13;1.13;;;7.80;84.60;;;;;;9179087;19;20025;-70
2024/02/24 15:00:33;;;;;;;4.25;1.50;;;7.80;84.50;;;;;;9184331;19;20015;-70
2024/02/24 15:03:43;;;;;;;6.38;1.10;;;7.80;84.40;;;;;;9184648;19;20493;-71
2024/02/24 15:06:50;;;;;;;3.75;1.52;;;7.90;84.30;;;;;;9180655;19;20039;-69
2024/02/24 15:10:02;;;;;;;4.80;1.30;;;7.90;84.20;;;;;;9178838;19;20021;-69
2024/02/24 15:13:08;;;;;;;4.22;1.42;;;7.90;84.10;;;;;;9178584;19;20011;-69
2024/02/24 15:16:15;;;;;;;9.48;1.88;;;7.90;84.10;;;;;;9176037;19;20021;-68
2024/02/24 15:19:21;;;;;;;3.38;2.63;;;7.90;84.10;;;;;;9176919;19;20010;-68
2024/02/24 15:22:29;;;;;;;4.43;1.42;;;7.90;84.00;;;;;;9179931;19;20014;-69
2024/02/24 15:25:37;;;;;;;3.75;1.40;;;7.90;83.90;;;;;;9179350;19;20015;-69
2024/02/24 15:28:45;;;;;;;3.25;1.10;;;7.90;84.00;;;;;;9177137;19;20010;-68
2024/02/24 15:31:50;;;;;;;5.75;1.58;;;7.90;83.80;;;;;;9174780;19;20045;-69
2024/02/24 15:34:58;;;;;;;7.07;1.50;;;8.00;83.80;;;;;;9176337;19;20151;-69
2024/02/24 15:38:05;;;;;;;4.10;1.17;;;7.90;83.80;;;;;;9174904;19;20912;-68
2024/02/24 15:41:19;;;;;;;3.78;1.42;;;7.90;83.80;;;;;;9170363;19;20078;-70
2024/02/24 15:44:24;;;;;;;4.65;1.45;;;7.90;83.60;;;;;;9171370;19;20015;-68
2024/02/24 15:47:32;;;;;;;3.13;1.33;;;7.90;83.60;;;;;;9174016;19;20025;-68
2024/02/24 15:50:38;;;;;;;6.32;1.55;;;7.90;83.60;;;;;;9176320;19;20010;-69
2024/02/24 15:53:46;;;;;;;4.00;1.80;;;7.90;83.50;;;;;;9174126;19;20011;-69
2024/02/24 15:56:54;;;;;;;2.25;1.42;;;7.90;83.60;;;;;;9175692;19;20018;-70
2024/02/24 16:00:02;;;;;;;7.13;1.98;;;7.80;83.60;;;;;;9171315;19;20025;-73
2024/02/24 16:03:08;;;;;;;4.15;1.75;;;7.90;83.60;;;;;;9175872;19;20046;-71
2024/02/24 16:06:16;;;;;;;8.75;3.28;;;7.80;83.60;;;;;;9173986;19;20049;-69
2024/02/24 16:09:22;;;;;;;5.60;1.98;;;7.80;83.50;;;;;;9173061;19;20022;-69
2024/02/24 16:12:32;;;;;;;4.45;2.92;;;7.80;83.40;;;;;;9173031;19;20142;-69
2024/02/24 16:15:37;;;;;;;2.95;1.95;;;7.80;83.30;;;;;;9171566;19;20022;-70
2024/02/24 16:18:45;;;;;;;5.32;2.13;;;7.70;83.50;;;;;;9173877;19;20019;-69
2024/02/24 16:21:51;;;;;;;5.20;2.60;;;7.70;83.40;;;;;;9175286;19;20021;-68
2024/02/24 16:24:58;;;;;;;6.53;2.15;;;7.70;84.10;;;;;;9174787;19;20010;-70
2024/02/24 16:28:07;;;;;;;3.25;1.38;;;7.70;83.30;;;;;;9175526;19;20074;-70
2024/02/24 16:31:15;;;;;;;4.18;2.28;;;7.70;83.50;;;;;;9176158;19;20489;-69